createdAt,value
2022-12-23T00:01:32.697Z,1.92
2022-12-23T00:06:34.934Z,2.05
2022-12-23T00:11:36.958Z,2.15
2022-12-23T00:16:39.130Z,1.83
2022-12-23T00:21:41.362Z,1.80
2022-12-23T00:26:43.349Z,1.50
2022-12-23T00:31:45.920Z,1.52
2022-12-23T00:36:47.979Z,1.85
2022-12-23T00:42:08.641Z,1.80
2022-12-23T00:47:30.589Z,1.85
2022-12-23T00:52:32.650Z,1.67
2022-12-23T00:57:34.799Z,1.55
2022-12-23T01:02:56.814Z,1.92
2022-12-23T01:07:58.927Z,1.40
2022-12-23T01:13:01.259Z,1.50
2022-12-23T01:18:03.876Z,1.35
2022-12-23T01:23:06.712Z,1.20
2022-12-23T01:28:08.621Z,1.35
2022-12-23T01:33:10.955Z,1.38
2022-12-23T01:38:13.223Z,1.20
2022-12-23T01:43:16.515Z,1.10
2022-12-23T01:48:25.089Z,1.20
2022-12-23T01:53:30.505Z,1.08
2022-12-23T01:58:37.088Z,0.98
2022-12-23T02:03:45.466Z,1.08
2022-12-23T02:09:06.312Z,0.98
2022-12-23T02:14:50.637Z,1.00
2022-12-23T02:20:13.907Z,1.30
2022-12-23T02:25:53.475Z,1.23
2022-12-23T02:31:09.895Z,1.40
2022-12-23T02:36:39.469Z,1.38
2022-12-23T02:42:04.610Z,1.42
2022-12-23T02:47:21.415Z,1.60
2022-12-23T02:52:27.767Z,1.20
2022-12-23T02:57:33.111Z,1.08
2022-12-23T03:02:38.060Z,1.23
2022-12-23T03:07:42.611Z,1.00
2022-12-23T03:12:56.345Z,1.13
2022-12-23T03:18:05.850Z,1.40
2022-12-23T03:23:24.515Z,1.35
2022-12-23T03:28:43.798Z,1.25
2022-12-23T03:33:48.554Z,1.30
2022-12-23T03:38:52.455Z,1.00
2022-12-23T03:44:11.419Z,1.50
2022-12-23T03:49:21.929Z,1.33
2022-12-23T03:54:31.214Z,1.23
2022-12-23T03:59:39.749Z,1.00
2022-12-23T04:05:09.290Z,1.48
2022-12-23T04:10:12.733Z,1.48
2022-12-23T04:15:20.000Z,2.05
2022-12-23T04:20:22.197Z,1.80
2022-12-23T04:25:24.987Z,1.92
2022-12-23T04:30:33.647Z,2.13
2022-12-23T04:35:36.554Z,1.80
2022-12-23T04:40:38.842Z,1.98
2022-12-23T04:45:41.734Z,1.42
2022-12-23T04:50:43.896Z,1.17
2022-12-23T04:55:50.383Z,0.70
2022-12-23T05:01:02.002Z,0.82
2022-12-23T05:06:05.179Z,0.70
2022-12-23T05:11:07.665Z,0.50
2022-12-23T05:16:09.679Z,0.75
2022-12-23T05:21:12.015Z,0.65
2022-12-23T05:26:14.467Z,0.70
2022-12-23T05:31:17.431Z,0.70
2022-12-23T05:36:19.614Z,0.60
2022-12-23T05:41:21.702Z,0.85
2022-12-23T05:46:26.794Z,1.10
2022-12-23T05:51:29.447Z,0.90
2022-12-23T05:56:32.286Z,1.00
2022-12-23T06:01:34.471Z,0.77
2022-12-23T06:06:36.857Z,1.20
2022-12-23T06:11:39.320Z,0.82
2022-12-23T06:16:41.347Z,1.15
2022-12-23T06:21:43.572Z,1.05
2022-12-23T06:26:45.829Z,0.80
2022-12-23T06:31:48.418Z,1.17
2022-12-23T06:36:50.447Z,1.52
2022-12-23T06:41:52.568Z,2.50
2022-12-23T06:46:54.784Z,0.80
2022-12-23T06:51:57.010Z,1.20
2022-12-23T06:56:59.392Z,0.90
2022-12-23T07:02:02.256Z,0.80
2022-12-23T07:07:04.492Z,0.50
2022-12-23T07:12:06.738Z,0.50
2022-12-23T07:17:10.612Z,0.90
2022-12-23T07:22:12.752Z,0.50
2022-12-23T07:27:14.790Z,0.77
2022-12-23T07:32:17.046Z,1.00
2022-12-23T07:37:19.204Z,1.30
2022-12-23T07:47:43.929Z,3.30
2022-12-23T07:52:46.204Z,2.80
2022-12-23T07:57:51.917Z,1.08
2022-12-23T08:02:54.143Z,0.70
2022-12-23T08:07:56.292Z,0.90
2022-12-23T08:13:01.097Z,0.50
2022-12-23T08:18:03.008Z,0.80
2022-12-23T08:23:05.403Z,0.80
2022-12-23T08:28:07.531Z,5.53
2022-12-23T08:33:10.106Z,3.72
2022-12-23T08:38:12.196Z,1.30
2022-12-23T08:43:14.149Z,0.93
2022-12-23T08:48:16.645Z,1.08
2022-12-23T08:53:19.156Z,0.95
2022-12-23T08:58:21.383Z,1.10
2022-12-23T09:03:23.600Z,1.17
2022-12-23T09:08:26.263Z,6.28
2022-12-23T09:13:35.088Z,4.05
2022-12-23T09:18:38.729Z,2.85
2022-12-23T09:23:41.264Z,1.45
2022-12-23T09:28:43.521Z,1.10
2022-12-23T09:33:50.020Z,0.95
2022-12-23T09:38:56.232Z,1.10
2022-12-23T09:44:20.074Z,1.60
2022-12-23T09:49:23.228Z,5.95
2022-12-23T09:54:29.137Z,7.43
2022-12-23T09:59:58.983Z,2.42
2022-12-23T10:05:17.181Z,1.60
2022-12-23T10:10:32.140Z,1.35
2022-12-23T10:15:47.673Z,1.08
2022-12-23T10:21:06.533Z,1.00
2022-12-23T10:26:43.794Z,0.60
2022-12-23T10:32:17.330Z,0.90
2022-12-23T10:37:25.439Z,0.85
2022-12-23T10:42:37.872Z,1.27
2022-12-23T10:47:43.114Z,0.60
2022-12-23T10:52:46.092Z,0.90
2022-12-23T10:57:52.381Z,0.52
2022-12-23T11:03:26.581Z,0.60
2022-12-23T11:08:31.175Z,0.80
2022-12-23T11:13:44.463Z,0.85
2022-12-23T11:19:06.452Z,0.60
2022-12-23T11:24:19.480Z,0.50
2022-12-23T11:29:29.042Z,0.70
2022-12-23T11:34:37.716Z,0.70
2022-12-23T11:39:40.294Z,0.60
2022-12-23T11:44:45.939Z,0.88
2022-12-23T11:49:58.888Z,0.40
2022-12-23T11:55:05.297Z,0.90
2022-12-23T12:00:18.311Z,0.77
2022-12-23T12:05:31.113Z,1.08
2022-12-23T12:10:35.591Z,0.82
2022-12-23T12:15:44.857Z,1.33
2022-12-23T12:20:54.566Z,0.60
2022-12-23T12:26:06.947Z,0.63
2022-12-23T12:31:20.684Z,0.50
2022-12-23T12:36:47.346Z,0.73
2022-12-23T12:41:53.002Z,0.90
2022-12-23T12:47:15.986Z,0.90
2022-12-23T12:52:26.562Z,0.70
2022-12-23T12:57:28.829Z,0.88
2022-12-23T13:02:52.615Z,0.50
2022-12-23T13:08:14.753Z,1.80
2022-12-23T13:13:41.465Z,1.75
2022-12-23T13:18:49.116Z,1.30
2022-12-23T13:24:15.714Z,0.90
2022-12-23T13:29:42.511Z,1.55
2022-12-23T13:34:56.234Z,1.15
2022-12-23T13:40:03.763Z,2.30
2022-12-23T13:45:12.294Z,1.30
2022-12-23T13:50:24.017Z,1.33
2022-12-23T13:55:52.018Z,1.45
2022-12-23T14:00:59.431Z,1.20
2022-12-23T14:06:22.534Z,0.85
2022-12-23T14:11:29.094Z,1.67
2022-12-23T14:16:36.484Z,0.90
2022-12-23T14:21:41.861Z,1.70
2022-12-23T14:27:01.622Z,3.15
2022-12-23T14:32:03.590Z,1.25
2022-12-23T14:37:17.707Z,1.00
2022-12-23T14:42:42.790Z,1.05
2022-12-23T14:47:46.600Z,0.80
2022-12-23T14:52:52.200Z,1.10
2022-12-23T14:58:09.195Z,0.80
2022-12-23T15:03:11.678Z,1.10
2022-12-23T15:08:43.947Z,1.60
2022-12-23T15:13:46.147Z,1.52
2022-12-23T15:18:55.665Z,1.95
2022-12-23T15:23:57.687Z,1.60
2022-12-23T15:29:00.493Z,1.33
2022-12-23T15:34:13.233Z,1.33
2022-12-23T15:39:32.127Z,1.60
2022-12-23T15:44:39.692Z,1.90
2022-12-23T15:49:41.746Z,1.70
2022-12-23T15:55:14.859Z,2.60
2022-12-23T16:00:26.007Z,2.22
2022-12-23T16:05:33.390Z,2.88
2022-12-23T16:10:35.613Z,2.00
2022-12-23T16:15:37.546Z,1.58
2022-12-23T16:20:45.121Z,3.28
2022-12-23T16:25:52.925Z,2.80
2022-12-23T16:30:57.558Z,3.45
2022-12-23T16:41:16.697Z,2.47
2022-12-23T16:46:20.910Z,2.47
2022-12-23T16:51:23.581Z,4.10
2022-12-23T16:56:32.267Z,2.95
2022-12-23T17:01:38.172Z,3.22
2022-12-23T17:06:41.852Z,2.63
2022-12-23T17:11:49.150Z,3.05
2022-12-23T17:16:51.731Z,3.40
2022-12-23T17:21:57.323Z,3.30
2022-12-23T17:26:59.391Z,2.97
2022-12-23T17:32:02.049Z,5.82
2022-12-23T17:37:19.461Z,5.40
2022-12-23T17:42:25.822Z,3.20
2022-12-23T17:47:28.325Z,3.03
2022-12-23T17:52:30.497Z,3.90
2022-12-23T17:57:32.842Z,4.53
2022-12-23T18:02:35.585Z,3.20
2022-12-23T18:07:37.630Z,3.55
2022-12-23T18:12:41.103Z,2.85
2022-12-23T18:17:43.135Z,3.30
2022-12-23T18:22:50.350Z,3.75
2022-12-23T18:27:53.793Z,4.55
2022-12-23T18:32:55.868Z,3.97
2022-12-23T18:38:00.436Z,3.70
2022-12-23T18:43:02.704Z,3.47
2022-12-23T18:48:07.351Z,4.43
2022-12-23T18:58:26.599Z,4.13
2022-12-23T19:03:31.691Z,3.63
2022-12-23T19:08:34.709Z,3.80
2022-12-23T19:13:36.807Z,3.70
2022-12-23T19:18:39.196Z,3.75
2022-12-23T19:23:41.662Z,4.70
2022-12-23T19:28:43.878Z,5.20
2022-12-23T19:33:47.024Z,3.65
2022-12-23T19:38:49.542Z,4.07
2022-12-23T19:43:51.534Z,7.45
2022-12-23T19:48:53.842Z,6.70
2022-12-23T19:53:55.778Z,3.35
2022-12-23T19:58:57.861Z,3.63
2022-12-23T20:04:00.051Z,3.90
2022-12-23T20:09:06.601Z,3.67
2022-12-23T20:14:09.154Z,4.43
2022-12-23T20:19:11.241Z,5.70
2022-12-23T20:24:14.483Z,5.00
2022-12-23T20:29:16.649Z,5.25
2022-12-23T20:34:18.770Z,4.55
2022-12-23T20:39:20.842Z,3.95
2022-12-23T20:44:38.263Z,4.00
2022-12-23T20:49:40.251Z,4.00
2022-12-23T20:54:43.273Z,4.30
2022-12-23T20:59:45.214Z,5.03
2022-12-23T21:04:47.381Z,6.32
2022-12-23T21:09:49.325Z,5.30
2022-12-23T21:14:51.272Z,5.15
2022-12-23T21:19:53.226Z,4.38
2022-12-23T21:24:55.168Z,4.15
2022-12-23T21:29:57.240Z,4.70
2022-12-23T21:35:01.703Z,5.32
2022-12-23T21:40:06.833Z,4.53
2022-12-23T21:45:10.091Z,4.88
2022-12-23T21:50:12.670Z,5.63
2022-12-23T21:55:16.192Z,5.85
2022-12-23T22:00:18.415Z,5.55
2022-12-23T22:05:20.480Z,5.60
2022-12-23T22:10:22.520Z,5.28
2022-12-23T22:15:24.450Z,5.82
2022-12-23T22:20:26.393Z,6.20
2022-12-23T22:25:28.281Z,6.68
2022-12-23T22:30:30.481Z,6.00
2022-12-23T22:35:32.655Z,6.32
2022-12-23T22:40:35.023Z,5.88
2022-12-23T22:45:37.163Z,5.82
2022-12-23T22:50:39.816Z,6.35
2022-12-23T22:55:41.699Z,6.22
2022-12-23T23:00:43.642Z,6.13
2022-12-23T23:05:56.586Z,6.10
2022-12-23T23:11:01.688Z,6.18
2022-12-23T23:16:04.955Z,6.25
2022-12-23T23:21:08.297Z,6.07
2022-12-23T23:26:11.079Z,6.60
2022-12-23T23:36:37.619Z,6.35
2022-12-23T23:41:41.174Z,6.72
2022-12-23T23:46:45.151Z,6.83
2022-12-23T23:51:47.271Z,6.07
2022-12-23T23:56:49.158Z,6.07
